sensor_id;sensor_type;location;lat;lon;timestamp;pressure;altitude;pressure_sealevel;temperature;humidity
54918;BME280;40818;50.562;7.454;2024-02-23T00:02:55;95238.25;;;3.97;100.00
54918;BME280;40818;50.562;7.454;2024-02-23T00:12:58;95281.19;;;3.95;100.00
54918;BME280;40818;50.562;7.454;2024-02-23T00:23:05;95305.25;;;3.94;100.00
54918;BME280;40818;50.562;7.454;2024-02-23T00:33:08;95332.22;;;3.88;100.00
54918;BME280;40818;50.562;7.454;2024-02-23T00:43:14;95354.25;;;3.57;100.00
54918;BME280;40818;50.562;7.454;2024-02-23T00:53:18;95376.81;;;3.29;100.00
54918;BME280;40818;50.562;7.454;2024-02-23T01:03:24;95400.09;;;3.15;100.00
54918;BME280;40818;50.562;7.454;2024-02-23T01:13:28;95427.66;;;3.00;100.00
54918;BME280;40818;50.562;7.454;2024-02-23T01:23:34;95446.38;;;2.89;100.00
54918;BME280;40818;50.562;7.454;2024-02-23T01:33:38;95460.59;;;2.69;100.00
54918;BME280;40818;50.562;7.454;2024-02-23T01:43:44;95459.41;;;2.49;100.00
54918;BME280;40818;50.562;7.454;2024-02-23T01:53:47;95481.88;;;2.45;100.00
54918;BME280;40818;50.562;7.454;2024-02-23T02:03:53;95483.28;;;2.36;100.00
54918;BME280;40818;50.562;7.454;2024-02-23T02:13:57;95504.44;;;2.27;100.00
54918;BME280;40818;50.562;7.454;2024-02-23T02:24:03;95513.53;;;2.18;100.00
54918;BME280;40818;50.562;7.454;2024-02-23T02:34:07;95510.16;;;2.18;100.00
54918;BME280;40818;50.562;7.454;2024-02-23T02:44:16;95507.81;;;2.15;100.00
54918;BME280;40818;50.562;7.454;2024-02-23T02:54:19;95520.00;;;2.24;100.00
54918;BME280;40818;50.562;7.454;2024-02-23T03:04:25;95536.59;;;2.31;100.00
54918;BME280;40818;50.562;7.454;2024-02-23T03:14:29;95530.13;;;2.38;100.00
54918;BME280;40818;50.562;7.454;2024-02-23T03:24:36;95542.72;;;2.42;100.00
54918;BME280;40818;50.562;7.454;2024-02-23T03:34:39;95539.81;;;2.46;100.00
54918;BME280;40818;50.562;7.454;2024-02-23T03:44:46;95538.69;;;2.50;100.00
54918;BME280;40818;50.562;7.454;2024-02-23T03:54:49;95551.50;;;2.50;100.00
54918;BME280;40818;50.562;7.454;2024-02-23T04:04:57;95544.66;;;2.51;100.00
54918;BME280;40818;50.562;7.454;2024-02-23T04:15:00;95554.81;;;2.39;100.00
54918;BME280;40818;50.562;7.454;2024-02-23T04:25:07;95540.66;;;2.21;100.00
54918;BME280;40818;50.562;7.454;2024-02-23T04:35:11;95537.59;;;2.03;100.00
54918;BME280;40818;50.562;7.454;2024-02-23T04:45:17;95530.13;;;1.87;100.00
54918;BME280;40818;50.562;7.454;2024-02-23T04:55:21;95551.28;;;1.76;100.00
54918;BME280;40818;50.562;7.454;2024-02-23T05:05:27;95560.59;;;1.64;100.00
54918;BME280;40818;50.562;7.454;2024-02-23T05:15:30;95562.63;;;1.72;100.00
54918;BME280;40818;50.562;7.454;2024-02-23T05:25:37;95554.16;;;1.84;100.00
54918;BME280;40818;50.562;7.454;2024-02-23T05:35:40;95563.69;;;1.95;100.00
54918;BME280;40818;50.562;7.454;2024-02-23T05:45:46;95543.44;;;2.05;100.00
54918;BME280;40818;50.562;7.454;2024-02-23T05:55:50;95541.47;;;2.09;100.00
54918;BME280;40818;50.562;7.454;2024-02-23T06:05:56;95538.00;;;2.10;100.00
54918;BME280;40818;50.562;7.454;2024-02-23T06:15:59;95521.94;;;2.20;100.00
54918;BME280;40818;50.562;7.454;2024-02-23T06:26:06;95528.50;;;2.25;100.00
54918;BME280;40818;50.562;7.454;2024-02-23T06:36:09;95533.50;;;2.13;100.00
54918;BME280;40818;50.562;7.454;2024-02-23T06:46:18;95530.53;;;2.19;100.00
54918;BME280;40818;50.562;7.454;2024-02-23T06:56:22;95534.84;;;2.32;100.00
54918;BME280;40818;50.562;7.454;2024-02-23T07:06:28;95552.03;;;2.43;100.00
54918;BME280;40818;50.562;7.454;2024-02-23T07:16:32;95555.31;;;2.58;100.00
54918;BME280;40818;50.562;7.454;2024-02-23T07:26:38;95565.94;;;2.64;100.00
54918;BME280;40818;50.562;7.454;2024-02-23T07:36:42;95578.00;;;2.75;100.00
54918;BME280;40818;50.562;7.454;2024-02-23T07:46:48;95579.44;;;2.79;100.00
54918;BME280;40818;50.562;7.454;2024-02-23T07:56:52;95580.88;;;2.83;100.00
54918;BME280;40818;50.562;7.454;2024-02-23T08:07:00;95579.41;;;2.92;100.00
54918;BME280;40818;50.562;7.454;2024-02-23T08:17:07;95589.25;;;2.98;100.00
54918;BME280;40818;50.562;7.454;2024-02-23T08:27:13;95605.13;;;3.03;100.00
54918;BME280;40818;50.562;7.454;2024-02-23T08:37:16;95609.09;;;3.07;100.00
54918;BME280;40818;50.562;7.454;2024-02-23T08:47:22;95619.16;;;3.11;100.00
54918;BME280;40818;50.562;7.454;2024-02-23T08:57:28;95611.03;;;3.17;100.00
54918;BME280;40818;50.562;7.454;2024-02-23T09:07:34;95619.94;;;3.24;100.00
54918;BME280;40818;50.562;7.454;2024-02-23T09:17:40;95621.81;;;3.22;100.00
54918;BME280;40818;50.562;7.454;2024-02-23T09:27:46;95628.22;;;3.65;100.00
54918;BME280;40818;50.562;7.454;2024-02-23T09:37:50;95633.66;;;3.60;100.00
54918;BME280;40818;50.562;7.454;2024-02-23T09:47:57;95631.84;;;3.62;100.00
54918;BME280;40818;50.562;7.454;2024-02-23T09:58:01;95636.94;;;3.86;100.00
54918;BME280;40818;50.562;7.454;2024-02-23T10:08:09;95613.72;;;4.23;100.00
54918;BME280;40818;50.562;7.454;2024-02-23T10:18:13;95616.66;;;5.43;100.00
54918;BME280;40818;50.562;7.454;2024-02-23T10:28:19;95629.06;;;5.82;100.00
54918;BME280;40818;50.562;7.454;2024-02-23T10:38:23;95640.22;;;6.36;100.00
54918;BME280;40818;50.562;7.454;2024-02-23T10:48:29;95641.75;;;6.06;100.00
54918;BME280;40818;50.562;7.454;2024-02-23T10:58:33;95650.41;;;6.05;100.00
54918;BME280;40818;50.562;7.454;2024-02-23T11:08:39;95641.31;;;6.86;100.00
54918;BME280;40818;50.562;7.454;2024-02-23T11:18:43;95627.25;;;7.40;97.14
54918;BME280;40818;50.562;7.454;2024-02-23T11:28:51;95632.44;;;7.60;92.93
54918;BME280;40818;50.562;7.454;2024-02-23T11:38:56;95657.28;;;7.41;97.51
54918;BME280;40818;50.562;7.454;2024-02-23T11:49:03;95669.41;;;6.89;100.00
54918;BME280;40818;50.562;7.454;2024-02-23T11:59:07;95645.06;;;6.08;100.00
54918;BME280;40818;50.562;7.454;2024-02-23T12:09:14;95624.66;;;6.69;100.00
54918;BME280;40818;50.562;7.454;2024-02-23T12:19:18;95613.16;;;7.64;100.00
54918;BME280;40818;50.562;7.454;2024-02-23T12:29:24;95619.94;;;7.65;100.00
54918;BME280;40818;50.562;7.454;2024-02-23T12:39:28;95618.78;;;7.18;100.00
54918;BME280;40818;50.562;7.454;2024-02-23T12:49:35;95616.72;;;6.81;100.00
54918;BME280;40818;50.562;7.454;2024-02-23T12:59:39;95617.34;;;6.95;100.00
54918;BME280;40818;50.562;7.454;2024-02-23T13:09:45;95609.41;;;6.87;100.00
54918;BME280;40818;50.562;7.454;2024-02-23T13:19:49;95634.41;;;6.65;100.00
54918;BME280;40818;50.562;7.454;2024-02-23T13:29:55;95629.03;;;6.26;100.00
54918;BME280;40818;50.562;7.454;2024-02-23T13:39:58;95654.91;;;6.24;100.00
54918;BME280;40818;50.562;7.454;2024-02-23T13:50:05;95649.81;;;5.80;100.00
54918;BME280;40818;50.562;7.454;2024-02-23T14:00:11;95635.56;;;5.65;100.00
54918;BME280;40818;50.562;7.454;2024-02-23T14:10:17;95627.00;;;5.64;100.00
54918;BME280;40818;50.562;7.454;2024-02-23T14:20:21;95628.66;;;5.66;100.00
54918;BME280;40818;50.562;7.454;2024-02-23T14:30:27;95611.72;;;5.52;100.00
54918;BME280;40818;50.562;7.454;2024-02-23T14:40:30;95614.72;;;5.02;100.00
54918;BME280;40818;50.562;7.454;2024-02-23T14:50:36;95605.84;;;5.06;100.00
54918;BME280;40818;50.562;7.454;2024-02-23T15:00:40;95619.06;;;5.12;100.00
54918;BME280;40818;50.562;7.454;2024-02-23T15:10:46;95612.84;;;5.04;100.00
54918;BME280;40818;50.562;7.454;2024-02-23T15:20:49;95600.81;;;5.16;100.00
54918;BME280;40818;50.562;7.454;2024-02-23T15:30:55;95601.41;;;5.19;100.00
54918;BME280;40818;50.562;7.454;2024-02-23T15:40:59;95607.69;;;5.04;100.00
54918;BME280;40818;50.562;7.454;2024-02-23T15:51:05;95619.03;;;4.90;100.00
54918;BME280;40818;50.562;7.454;2024-02-23T16:01:08;95607.84;;;4.79;100.00
54918;BME280;40818;50.562;7.454;2024-02-23T16:11:15;95609.13;;;4.63;100.00
54918;BME280;40818;50.562;7.454;2024-02-23T16:21:18;95607.72;;;4.58;100.00
54918;BME280;40818;50.562;7.454;2024-02-23T16:31:24;95605.25;;;4.46;100.00
54918;BME280;40818;50.562;7.454;2024-02-23T16:41:28;95614.91;;;4.31;100.00
54918;BME280;40818;50.562;7.454;2024-02-23T16:51:34;95622.59;;;4.19;100.00
54918;BME280;40818;50.562;7.454;2024-02-23T17:01:38;95615.44;;;4.12;100.00
54918;BME280;40818;50.562;7.454;2024-02-23T17:11:45;95609.91;;;3.93;100.00
54918;BME280;40818;50.562;7.454;2024-02-23T17:21:49;95618.81;;;3.76;100.00
54918;BME280;40818;50.562;7.454;2024-02-23T17:31:55;95617.59;;;3.58;100.00
54918;BME280;40818;50.562;7.454;2024-02-23T17:41:58;95610.56;;;3.60;100.00
54918;BME280;40818;50.562;7.454;2024-02-23T17:52:05;95617.59;;;3.58;100.00
54918;BME280;40818;50.562;7.454;2024-02-23T18:02:09;95640.69;;;3.58;100.00
54918;BME280;40818;50.562;7.454;2024-02-23T18:12:15;95660.00;;;3.51;100.00
54918;BME280;40818;50.562;7.454;2024-02-23T18:22:18;95672.44;;;3.44;100.00
54918;BME280;40818;50.562;7.454;2024-02-23T18:32:25;95673.00;;;3.48;100.00
54918;BME280;40818;50.562;7.454;2024-02-23T18:42:29;95671.41;;;3.34;100.00
54918;BME280;40818;50.562;7.454;2024-02-23T18:52:35;95669.50;;;3.24;100.00
54918;BME280;40818;50.562;7.454;2024-02-23T19:02:38;95682.50;;;3.21;100.00
54918;BME280;40818;50.562;7.454;2024-02-23T19:12:44;95676.25;;;3.25;100.00
54918;BME280;40818;50.562;7.454;2024-02-23T19:22:48;95678.00;;;3.25;100.00
54918;BME280;40818;50.562;7.454;2024-02-23T19:32:56;95697.50;;;3.28;100.00
54918;BME280;40818;50.562;7.454;2024-02-23T19:43:00;95692.88;;;3.33;100.00
54918;BME280;40818;50.562;7.454;2024-02-23T19:53:06;95696.47;;;3.17;100.00
54918;BME280;40818;50.562;7.454;2024-02-23T20:03:09;95678.06;;;2.99;100.00
54918;BME280;40818;50.562;7.454;2024-02-23T20:13:15;95693.81;;;3.06;100.00
54918;BME280;40818;50.562;7.454;2024-02-23T20:23:19;95696.06;;;2.98;100.00
54918;BME280;40818;50.562;7.454;2024-02-23T20:33:25;95697.63;;;3.00;100.00
54918;BME280;40818;50.562;7.454;2024-02-23T20:43:29;95703.97;;;3.07;100.00
54918;BME280;40818;50.562;7.454;2024-02-23T20:53:35;95707.06;;;3.00;100.00
54918;BME280;40818;50.562;7.454;2024-02-23T21:03:38;95711.06;;;2.91;100.00
54918;BME280;40818;50.562;7.454;2024-02-23T21:13:45;95702.34;;;2.68;100.00
54918;BME280;40818;50.562;7.454;2024-02-23T21:23:49;95679.59;;;2.63;100.00
54918;BME280;40818;50.562;7.454;2024-02-23T21:33:55;95690.44;;;2.80;100.00
54918;BME280;40818;50.562;7.454;2024-02-23T21:43:59;95699.47;;;2.98;100.00
54918;BME280;40818;50.562;7.454;2024-02-23T21:54:08;95716.69;;;3.09;100.00
54918;BME280;40818;50.562;7.454;2024-02-23T22:04:12;95733.00;;;3.21;100.00
54918;BME280;40818;50.562;7.454;2024-02-23T22:14:17;95732.69;;;3.13;100.00
54918;BME280;40818;50.562;7.454;2024-02-23T22:24:21;95731.34;;;3.07;100.00
54918;BME280;40818;50.562;7.454;2024-02-23T22:34:27;95734.84;;;2.93;100.00
54918;BME280;40818;50.562;7.454;2024-02-23T22:44:30;95729.50;;;2.83;100.00
54918;BME280;40818;50.562;7.454;2024-02-23T22:54:38;95720.47;;;2.78;100.00
54918;BME280;40818;50.562;7.454;2024-02-23T23:04:42;95711.25;;;2.62;100.00
54918;BME280;40818;50.562;7.454;2024-02-23T23:14:48;95711.84;;;2.40;100.00
54918;BME280;40818;50.562;7.454;2024-02-23T23:24:52;95717.31;;;2.21;100.00
54918;BME280;40818;50.562;7.454;2024-02-23T23:34:58;95724.16;;;2.08;100.00
54918;BME280;40818;50.562;7.454;2024-02-23T23:45:01;95735.88;;;1.97;100.00
54918;BME280;40818;50.562;7.454;2024-02-23T23:55:08;95723.84;;;1.85;100.00
